createdAt,value
2019-03-21T00:00:55.025Z,12.37
2019-03-21T00:03:23.436Z,5.60
2019-03-21T00:05:51.874Z,8.65
2019-03-21T00:08:20.290Z,5.72
2019-03-21T00:11:11.339Z,7.87
2019-03-21T00:13:39.863Z,9.48
2019-03-21T00:16:13.493Z,11.45
2019-03-21T00:18:41.643Z,10.63
2019-03-21T00:21:10.082Z,12.30
2019-03-21T00:23:38.517Z,8.03
2019-03-21T00:26:06.960Z,13.90
2019-03-21T00:28:35.382Z,14.80
2019-03-21T00:31:03.844Z,13.65
2019-03-21T00:33:32.270Z,27.65
2019-03-21T00:36:02.242Z,20.32
2019-03-21T00:38:30.679Z,15.80
2019-03-21T00:40:59.134Z,14.93
2019-03-21T00:43:27.567Z,10.80
2019-03-21T00:45:56.007Z,13.20
2019-03-21T00:48:24.418Z,9.58
2019-03-21T00:50:52.871Z,12.80
2019-03-21T00:53:21.329Z,12.13
2019-03-21T00:55:52.552Z,13.93
2019-03-21T00:58:20.967Z,9.63
2019-03-21T01:00:58.042Z,10.30
2019-03-21T01:03:26.548Z,10.60
2019-03-21T01:05:55.001Z,12.03
2019-03-21T01:08:23.423Z,10.98
2019-03-21T01:10:52.488Z,9.98
2019-03-21T01:13:21.551Z,7.47
2019-03-21T01:15:49.999Z,13.13
2019-03-21T01:18:18.443Z,13.15
2019-03-21T01:20:46.870Z,10.25
2019-03-21T01:23:15.315Z,9.53
2019-03-21T01:25:55.516Z,7.40
2019-03-21T01:28:23.955Z,7.17
2019-03-21T01:30:52.377Z,9.35
2019-03-21T01:33:20.880Z,10.98
2019-03-21T01:35:49.307Z,12.47
2019-03-21T01:38:17.742Z,6.65
2019-03-21T01:40:49.303Z,7.90
2019-03-21T01:43:18.586Z,6.65
2019-03-21T01:45:47.009Z,17.50
2019-03-21T01:48:16.115Z,7.40
2019-03-21T01:50:44.547Z,11.20
2019-03-21T01:53:12.995Z,6.72
2019-03-21T01:55:41.427Z,9.55
2019-03-21T01:58:09.917Z,6.75
2019-03-21T02:00:40.279Z,8.30
2019-03-21T02:03:08.722Z,6.53
2019-03-21T02:05:37.143Z,8.93
2019-03-21T02:08:05.672Z,8.28
2019-03-21T02:10:34.905Z,9.03
2019-03-21T02:13:03.519Z,10.58
2019-03-21T02:15:32.107Z,8.40
2019-03-21T02:18:00.552Z,9.15
2019-03-21T02:20:28.971Z,5.85
2019-03-21T02:22:57.402Z,9.78
2019-03-21T02:25:34.033Z,6.72
2019-03-21T02:28:02.789Z,8.15
2019-03-21T02:30:37.000Z,9.93
2019-03-21T02:33:20.713Z,8.30
2019-03-21T02:35:49.140Z,8.70
2019-03-21T02:38:17.567Z,7.28
2019-03-21T02:40:47.343Z,9.10
2019-03-21T02:43:15.788Z,15.23
2019-03-21T02:45:44.213Z,19.70
2019-03-21T02:48:12.719Z,14.30
2019-03-21T02:50:45.598Z,6.40
2019-03-21T02:53:14.010Z,5.70
2019-03-21T02:55:42.454Z,11.83
2019-03-21T02:58:12.413Z,6.28
2019-03-21T03:00:45.339Z,10.00
2019-03-21T03:03:15.463Z,8.63
2019-03-21T03:05:43.907Z,5.37
2019-03-21T03:08:12.399Z,7.25
2019-03-21T03:10:55.028Z,8.68
2019-03-21T03:13:24.101Z,16.52
2019-03-21T03:15:52.675Z,12.75
2019-03-21T03:18:22.349Z,8.58
2019-03-21T03:20:50.770Z,9.20
2019-03-21T03:23:19.198Z,8.13
2019-03-21T03:25:50.770Z,8.00
2019-03-21T03:28:36.756Z,6.20
2019-03-21T03:31:05.200Z,5.65
2019-03-21T03:33:33.619Z,6.33
2019-03-21T03:36:02.231Z,7.30
2019-03-21T03:38:30.651Z,12.78
2019-03-21T03:41:01.347Z,8.35
2019-03-21T03:43:29.777Z,5.80
2019-03-21T03:45:58.208Z,6.20
2019-03-21T03:48:27.860Z,7.35
2019-03-21T03:50:56.298Z,12.05
2019-03-21T03:53:24.742Z,5.90
2019-03-21T03:55:53.459Z,5.92
2019-03-21T03:58:26.606Z,8.00
2019-03-21T04:00:55.214Z,5.83
2019-03-21T04:03:24.642Z,4.90
2019-03-21T04:05:53.068Z,4.75
2019-03-21T04:08:21.663Z,6.83
2019-03-21T04:10:51.577Z,4.22
2019-03-21T04:13:20.020Z,6.60
2019-03-21T04:15:52.998Z,5.55
2019-03-21T04:18:21.356Z,5.58
2019-03-21T04:20:54.863Z,9.63
2019-03-21T04:23:23.769Z,17.42
2019-03-21T04:25:55.340Z,5.15
2019-03-21T04:28:25.381Z,8.25
2019-03-21T04:30:53.866Z,8.00
2019-03-21T04:33:22.967Z,8.88
2019-03-21T04:35:51.615Z,11.10
2019-03-21T04:38:21.582Z,5.20
2019-03-21T04:40:50.011Z,5.58
2019-03-21T04:43:18.446Z,6.15
2019-03-21T04:45:46.862Z,9.38
2019-03-21T04:48:15.304Z,6.67
2019-03-21T04:50:43.725Z,3.65
2019-03-21T04:53:12.170Z,9.08
2019-03-21T04:55:42.126Z,11.73
2019-03-21T04:58:10.643Z,5.45
2019-03-21T05:00:41.474Z,5.20
2019-03-21T05:03:24.094Z,4.70
2019-03-21T05:05:52.524Z,14.15
2019-03-21T05:08:20.958Z,8.23
2019-03-21T05:10:49.387Z,8.58
2019-03-21T05:13:17.826Z,8.58
2019-03-21T05:15:47.898Z,7.72
2019-03-21T05:18:40.395Z,4.58
2019-03-21T05:21:14.718Z,7.75
2019-03-21T05:23:43.155Z,6.05
2019-03-21T05:26:11.574Z,4.37
2019-03-21T05:28:40.014Z,7.78
2019-03-21T05:31:17.703Z,6.15
2019-03-21T05:33:46.181Z,9.18
2019-03-21T05:36:14.619Z,8.00
2019-03-21T05:38:44.615Z,12.23
2019-03-21T05:41:13.058Z,8.20
2019-03-21T05:43:47.539Z,5.30
2019-03-21T05:46:25.943Z,8.15
2019-03-21T05:48:47.155Z,8.28
2019-03-21T05:51:15.610Z,14.33
2019-03-21T05:53:44.027Z,12.47
2019-03-21T05:56:12.475Z,5.53
2019-03-21T05:58:40.891Z,6.65
2019-03-21T06:01:11.179Z,10.48
2019-03-21T06:03:52.887Z,7.72
2019-03-21T06:06:39.881Z,11.22
2019-03-21T06:09:11.976Z,7.15
2019-03-21T06:11:43.628Z,9.45
2019-03-21T06:14:12.106Z,9.78
2019-03-21T06:16:40.568Z,9.15
2019-03-21T06:19:13.150Z,13.72
2019-03-21T06:21:52.901Z,12.60
2019-03-21T06:24:33.478Z,13.78
2019-03-21T06:27:15.091Z,11.93
2019-03-21T06:29:43.643Z,10.40
2019-03-21T06:32:13.134Z,18.70
2019-03-21T06:34:41.718Z,11.28
2019-03-21T06:37:10.154Z,9.95
2019-03-21T06:39:38.634Z,14.18
2019-03-21T06:42:07.078Z,12.53
2019-03-21T06:44:35.506Z,11.75
2019-03-21T06:47:04.213Z,13.58
2019-03-21T06:49:32.630Z,11.35
2019-03-21T06:52:01.075Z,11.90
2019-03-21T06:54:29.512Z,17.25
2019-03-21T06:56:58.023Z,14.13
2019-03-21T06:59:27.987Z,16.93
2019-03-21T07:01:56.450Z,14.83
2019-03-21T07:04:24.890Z,19.50
2019-03-21T07:06:54.002Z,23.47
2019-03-21T07:09:22.487Z,13.83
2019-03-21T07:11:51.005Z,14.18
2019-03-21T07:14:19.427Z,30.97
2019-03-21T07:16:47.887Z,17.07
2019-03-21T07:19:16.307Z,14.63
2019-03-21T07:21:44.754Z,14.35
2019-03-21T07:24:13.182Z,17.02
2019-03-21T07:26:41.624Z,23.90
2019-03-21T07:29:10.063Z,17.77
2019-03-21T07:31:38.482Z,26.87
2019-03-21T07:34:06.944Z,25.45
2019-03-21T07:36:35.356Z,28.87
2019-03-21T07:39:05.406Z,22.67
2019-03-21T07:41:33.844Z,29.75
2019-03-21T07:44:02.323Z,21.10
2019-03-21T07:46:32.074Z,17.42
2019-03-21T07:49:00.760Z,28.30
2019-03-21T07:51:29.190Z,20.52
2019-03-21T07:53:58.078Z,18.25
2019-03-21T07:56:26.536Z,19.20
2019-03-21T07:58:57.600Z,14.15
2019-03-21T08:01:25.142Z,27.48
2019-03-21T08:03:53.644Z,19.90
2019-03-21T08:06:22.057Z,15.78
2019-03-21T08:08:50.503Z,13.08
2019-03-21T08:11:18.933Z,10.78
2019-03-21T08:13:47.380Z,7.37
2019-03-21T08:16:15.790Z,12.47
2019-03-21T08:18:45.778Z,6.75
2019-03-21T08:21:14.266Z,7.22
2019-03-21T08:23:42.783Z,6.83
2019-03-21T08:26:11.220Z,8.10
2019-03-21T08:28:39.627Z,9.05
2019-03-21T08:31:11.147Z,9.25
2019-03-21T08:33:39.554Z,6.53
2019-03-21T08:36:08.058Z,5.90
2019-03-21T08:38:36.579Z,10.03
2019-03-21T08:41:05.254Z,15.18
2019-03-21T08:43:33.787Z,4.90
2019-03-21T08:46:02.306Z,15.00
2019-03-21T08:48:30.723Z,8.70
2019-03-21T08:51:07.597Z,12.60
2019-03-21T08:53:29.407Z,10.35
2019-03-21T08:55:57.866Z,8.15
2019-03-21T08:58:26.298Z,9.23
2019-03-21T09:00:56.314Z,7.90
2019-03-21T09:03:24.731Z,7.60
2019-03-21T09:05:54.787Z,4.80
2019-03-21T09:08:23.223Z,10.63
2019-03-21T09:10:51.715Z,6.40
2019-03-21T09:13:20.148Z,8.93
2019-03-21T09:15:48.561Z,9.17
2019-03-21T09:18:18.983Z,10.70
2019-03-21T09:20:47.175Z,8.63
2019-03-21T09:23:15.627Z,9.90
2019-03-21T09:25:44.042Z,8.13
2019-03-21T09:28:14.388Z,6.13
2019-03-21T09:30:42.935Z,9.60
2019-03-21T09:33:11.387Z,10.97
2019-03-21T09:35:39.803Z,10.87
2019-03-21T09:38:08.327Z,12.50
2019-03-21T09:40:36.797Z,7.90
2019-03-21T09:43:05.302Z,8.60
2019-03-21T09:45:33.739Z,10.43
2019-03-21T09:48:02.199Z,7.50
2019-03-21T09:50:30.961Z,10.53
2019-03-21T09:52:59.483Z,9.00
2019-03-21T09:55:27.908Z,6.83
2019-03-21T09:57:56.349Z,9.93
2019-03-21T10:00:36.043Z,5.30
2019-03-21T10:03:05.763Z,7.23
2019-03-21T10:05:34.273Z,5.53
2019-03-21T10:08:03.015Z,4.33
2019-03-21T10:10:32.672Z,5.90
2019-03-21T10:13:01.257Z,6.20
2019-03-21T10:15:29.760Z,6.67
2019-03-21T10:17:59.794Z,9.10
2019-03-21T10:20:28.226Z,8.73
2019-03-21T10:22:56.662Z,7.77
2019-03-21T10:25:26.723Z,7.50
2019-03-21T10:27:55.521Z,4.97
2019-03-21T10:30:32.905Z,9.97
2019-03-21T10:33:01.378Z,7.27
2019-03-21T10:35:32.381Z,11.63
2019-03-21T10:37:59.967Z,5.43
2019-03-21T10:40:28.525Z,7.17
2019-03-21T10:42:56.948Z,4.77
2019-03-21T10:45:25.523Z,6.30
2019-03-21T10:47:53.934Z,9.77
2019-03-21T10:50:33.531Z,13.13
2019-03-21T10:53:02.118Z,4.97
2019-03-21T10:55:30.710Z,12.60
2019-03-21T10:57:59.191Z,8.30
2019-03-21T11:00:27.898Z,6.10
2019-03-21T11:02:56.550Z,7.33
2019-03-21T11:05:25.231Z,5.53
2019-03-21T11:07:53.714Z,6.50
2019-03-21T11:10:22.337Z,7.37
2019-03-21T11:12:50.911Z,9.40
2019-03-21T11:15:19.540Z,8.27
2019-03-21T11:17:49.597Z,6.23
2019-03-21T11:20:29.713Z,8.80
2019-03-21T11:22:58.201Z,8.07
2019-03-21T11:25:26.922Z,8.50
2019-03-21T11:27:55.372Z,6.47
2019-03-21T11:30:37.908Z,4.93
2019-03-21T11:33:06.610Z,7.57
2019-03-21T11:35:35.366Z,9.83
2019-03-21T11:38:05.652Z,11.77
2019-03-21T11:40:34.346Z,5.40
2019-03-21T11:43:04.002Z,6.77
2019-03-21T11:45:32.405Z,3.57
2019-03-21T11:48:00.933Z,4.97
2019-03-21T11:50:29.582Z,9.50
2019-03-21T11:52:58.011Z,5.07
2019-03-21T11:55:26.801Z,9.00
2019-03-21T11:57:55.298Z,9.37
2019-03-21T12:00:23.716Z,6.33
2019-03-21T12:02:52.153Z,5.50
2019-03-21T12:05:20.651Z,8.97
2019-03-21T12:07:49.168Z,11.70
2019-03-21T12:10:17.814Z,4.50
2019-03-21T12:12:46.432Z,8.27
2019-03-21T12:15:15.195Z,7.20
2019-03-21T12:17:43.614Z,6.27
2019-03-21T12:20:32.209Z,7.63
2019-03-21T12:23:00.887Z,6.53
2019-03-21T12:25:29.381Z,5.40
2019-03-21T12:27:58.110Z,5.50
2019-03-21T12:30:40.119Z,10.27
2019-03-21T12:33:08.751Z,5.77
2019-03-21T12:35:37.459Z,9.33
2019-03-21T12:38:07.129Z,6.57
2019-03-21T12:40:35.698Z,16.43
2019-03-21T12:43:04.179Z,6.03
2019-03-21T12:45:32.634Z,5.20
2019-03-21T12:48:01.062Z,6.53
2019-03-21T12:50:29.643Z,4.80
2019-03-21T12:52:58.069Z,5.90
2019-03-21T12:55:26.504Z,6.13
2019-03-21T12:57:54.961Z,5.20
2019-03-21T13:00:32.146Z,9.67
2019-03-21T13:03:00.555Z,6.40
2019-03-21T13:05:30.430Z,7.00
2019-03-21T13:07:58.859Z,5.13
2019-03-21T13:10:27.389Z,8.27
2019-03-21T13:12:55.802Z,4.80
2019-03-21T13:15:29.820Z,4.77
2019-03-21T13:17:54.484Z,4.20
2019-03-21T13:20:22.915Z,6.93
2019-03-21T13:22:53.294Z,7.70
2019-03-21T13:25:21.518Z,4.50
2019-03-21T13:27:49.928Z,5.70
2019-03-21T13:30:18.609Z,6.70
2019-03-21T13:32:47.287Z,9.37
2019-03-21T13:35:15.922Z,9.83
2019-03-21T13:37:44.346Z,6.90
2019-03-21T13:40:13.023Z,9.20
2019-03-21T13:42:41.451Z,5.00
2019-03-21T13:45:10.231Z,5.87
2019-03-21T13:47:38.646Z,4.80
2019-03-21T13:50:10.630Z,7.60
2019-03-21T13:52:39.155Z,9.80
2019-03-21T13:55:08.818Z,5.27
2019-03-21T13:57:37.321Z,6.70
2019-03-21T14:00:08.357Z,6.77
2019-03-21T14:02:36.797Z,6.07
2019-03-21T14:05:07.238Z,9.77
2019-03-21T14:07:35.750Z,6.33
2019-03-21T14:10:10.043Z,6.83
2019-03-21T14:12:38.486Z,10.70
2019-03-21T14:15:14.714Z,7.53
2019-03-21T14:17:43.247Z,8.77
2019-03-21T14:20:13.711Z,7.20
2019-03-21T14:22:42.727Z,10.30
2019-03-21T14:25:11.379Z,5.60
2019-03-21T14:27:39.844Z,8.40
2019-03-21T14:30:14.290Z,8.43
2019-03-21T14:32:42.951Z,6.37
2019-03-21T14:35:12.206Z,6.20
2019-03-21T14:37:40.647Z,9.37
2019-03-21T14:40:14.277Z,9.73
2019-03-21T14:42:43.288Z,5.83
2019-03-21T14:45:16.764Z,7.60
2019-03-21T14:47:45.742Z,6.23
2019-03-21T14:50:17.970Z,6.00
2019-03-21T14:52:46.416Z,5.27
2019-03-21T14:55:15.279Z,4.53
2019-03-21T14:57:43.791Z,4.17
2019-03-21T15:00:18.001Z,5.93
2019-03-21T15:02:46.672Z,6.60
2019-03-21T15:05:15.700Z,6.40
2019-03-21T15:07:44.135Z,5.20
2019-03-21T15:10:15.070Z,4.10
2019-03-21T15:12:43.570Z,5.97
2019-03-21T15:15:14.131Z,5.77
2019-03-21T15:17:42.573Z,5.23
2019-03-21T15:20:13.363Z,5.57
2019-03-21T15:22:41.775Z,5.80
2019-03-21T15:25:11.159Z,6.50
2019-03-21T15:27:39.593Z,7.13
2019-03-21T15:30:17.009Z,4.17
2019-03-21T15:32:45.826Z,5.33
2019-03-21T15:35:16.168Z,7.70
2019-03-21T15:37:46.339Z,8.30
2019-03-21T15:40:15.755Z,6.67
2019-03-21T15:42:44.266Z,5.10
2019-03-21T15:45:22.672Z,6.57
2019-03-21T15:47:48.002Z,7.00
2019-03-21T15:50:36.896Z,4.43
2019-03-21T15:53:05.266Z,6.13
2019-03-21T15:55:33.790Z,8.13
2019-03-21T15:58:02.563Z,5.83
2019-03-21T16:00:35.535Z,6.80
2019-03-21T16:03:05.307Z,8.17
2019-03-21T16:05:33.827Z,4.90
2019-03-21T16:08:02.319Z,7.33
2019-03-21T16:10:30.836Z,4.10
2019-03-21T16:12:59.318Z,6.33
2019-03-21T16:15:27.763Z,4.40
2019-03-21T16:17:56.183Z,4.17
2019-03-21T16:20:25.006Z,10.40
2019-03-21T16:22:53.436Z,6.50
2019-03-21T16:25:21.962Z,8.23
2019-03-21T16:27:50.386Z,5.50
2019-03-21T16:30:18.838Z,4.97
2019-03-21T16:32:47.313Z,5.97
2019-03-21T16:35:15.760Z,6.70
2019-03-21T16:37:44.198Z,5.07
2019-03-21T16:40:16.814Z,7.07
2019-03-21T16:42:45.347Z,5.57
2019-03-21T16:45:15.409Z,7.83
2019-03-21T16:47:43.851Z,9.97
2019-03-21T16:50:13.699Z,4.67
2019-03-21T16:52:42.504Z,6.13
2019-03-21T16:55:11.860Z,6.60
2019-03-21T16:57:40.298Z,5.43
2019-03-21T17:00:11.821Z,5.20
2019-03-21T17:02:40.254Z,8.13
2019-03-21T17:05:08.753Z,9.50
2019-03-21T17:07:37.204Z,8.97
2019-03-21T17:10:08.708Z,5.57
2019-03-21T17:12:40.744Z,3.47
2019-03-21T17:15:10.733Z,5.57
2019-03-21T17:17:39.229Z,5.73
2019-03-21T17:20:09.471Z,4.73
2019-03-21T17:22:38.008Z,5.73
2019-03-21T17:25:08.820Z,5.00
2019-03-21T17:27:37.333Z,10.93
2019-03-21T17:30:08.977Z,8.73
2019-03-21T17:32:37.605Z,11.87
2019-03-21T17:35:07.066Z,15.50
2019-03-21T17:37:35.515Z,12.70
2019-03-21T17:40:06.659Z,11.67
2019-03-21T17:42:35.099Z,10.40
2019-03-21T17:45:05.382Z,8.97
2019-03-21T17:47:33.961Z,6.37
2019-03-21T17:50:02.460Z,10.93
2019-03-21T17:52:30.880Z,10.80
2019-03-21T17:54:59.366Z,6.60
2019-03-21T17:57:34.453Z,7.80
2019-03-21T17:59:57.987Z,5.23
2019-03-21T18:02:26.413Z,7.97
2019-03-21T18:04:54.944Z,8.73
2019-03-21T18:07:23.485Z,13.55
2019-03-21T18:09:51.943Z,13.35
2019-03-21T18:12:20.395Z,11.78
2019-03-21T18:14:49.042Z,8.63
2019-03-21T18:17:17.466Z,9.73
2019-03-21T18:19:45.931Z,4.70
2019-03-21T18:22:14.349Z,6.15
2019-03-21T18:24:53.463Z,10.95
2019-03-21T18:27:13.055Z,5.10
2019-03-21T18:29:41.498Z,4.77
2019-03-21T18:32:10.012Z,4.50
2019-03-21T18:34:38.463Z,3.50
2019-03-21T18:37:06.891Z,4.17
2019-03-21T18:39:35.329Z,9.45
2019-03-21T18:42:04.019Z,4.92
2019-03-21T18:44:32.509Z,8.63
2019-03-21T18:47:00.935Z,5.35
2019-03-21T18:49:29.384Z,5.30
2019-03-21T18:51:57.803Z,4.87
2019-03-21T18:54:26.274Z,3.55
2019-03-21T18:56:54.715Z,3.47
2019-03-21T18:59:23.151Z,7.45
2019-03-21T19:01:58.550Z,10.32
2019-03-21T19:04:21.765Z,8.33
2019-03-21T19:06:50.281Z,8.25
2019-03-21T19:09:18.805Z,4.85
2019-03-21T19:11:47.245Z,8.03
2019-03-21T19:14:15.664Z,5.65
2019-03-21T19:16:44.102Z,5.72
2019-03-21T19:19:12.511Z,5.28
2019-03-21T19:21:41.227Z,6.10
2019-03-21T19:24:11.538Z,5.35
2019-03-21T19:26:39.879Z,6.47
2019-03-21T19:29:09.960Z,12.47
2019-03-21T19:31:38.420Z,12.50
2019-03-21T19:34:06.847Z,9.70
2019-03-21T19:36:35.287Z,6.53
2019-03-21T19:39:05.302Z,7.70
2019-03-21T19:41:33.815Z,6.75
2019-03-21T19:44:02.328Z,27.35
2019-03-21T19:46:30.835Z,20.50
2019-03-21T19:48:59.255Z,13.03
2019-03-21T19:51:27.682Z,10.95
2019-03-21T19:53:56.134Z,10.98
2019-03-21T19:56:24.554Z,13.13
2019-03-21T19:58:53.058Z,10.82
2019-03-21T20:01:21.476Z,8.03
2019-03-21T20:03:49.929Z,7.95
2019-03-21T20:06:18.363Z,7.75
2019-03-21T20:08:46.794Z,6.10
2019-03-21T20:11:15.215Z,7.33
2019-03-21T20:13:43.687Z,6.45
2019-03-21T20:16:12.207Z,6.53
2019-03-21T20:18:40.693Z,6.60
2019-03-21T20:21:09.136Z,8.90
2019-03-21T20:23:37.587Z,4.92
2019-03-21T20:26:06.006Z,7.25
2019-03-21T20:28:34.501Z,9.80
2019-03-21T20:31:02.930Z,11.78
2019-03-21T20:33:31.363Z,10.55
2019-03-21T20:35:59.797Z,5.10
2019-03-21T20:38:28.251Z,8.65
2019-03-21T20:40:58.342Z,7.05
2019-03-21T20:43:26.798Z,7.28
2019-03-21T20:45:55.314Z,3.58
2019-03-21T20:48:28.910Z,8.30
2019-03-21T20:50:57.895Z,8.45
2019-03-21T20:53:26.314Z,9.63
2019-03-21T20:55:54.916Z,9.83
2019-03-21T20:58:23.486Z,9.08
2019-03-21T21:00:51.932Z,10.20
2019-03-21T21:03:20.439Z,12.63
2019-03-21T21:05:48.946Z,9.63
2019-03-21T21:08:18.870Z,6.17
2019-03-21T21:10:47.329Z,11.12
2019-03-21T21:13:15.819Z,7.60
2019-03-21T21:15:44.268Z,5.17
2019-03-21T21:18:12.685Z,7.90
2019-03-21T21:20:41.126Z,7.17
2019-03-21T21:23:11.116Z,11.22
2019-03-21T21:25:39.772Z,9.88
2019-03-21T21:28:08.218Z,9.40
2019-03-21T21:30:36.633Z,8.33
2019-03-21T21:33:05.090Z,9.70
2019-03-21T21:35:33.558Z,6.05
2019-03-21T21:38:02.006Z,7.30
2019-03-21T21:40:32.741Z,8.35
2019-03-21T21:43:01.475Z,5.70
2019-03-21T21:45:29.898Z,10.50
2019-03-21T21:47:58.330Z,9.70
2019-03-21T21:50:26.752Z,12.78
2019-03-21T21:52:55.179Z,10.08
2019-03-21T21:55:23.601Z,11.33
2019-03-21T21:57:52.046Z,6.90
2019-03-21T22:00:21.726Z,7.03
2019-03-21T22:02:50.171Z,7.12
2019-03-21T22:05:19.217Z,8.38
2019-03-21T22:07:47.699Z,8.73
2019-03-21T22:10:16.410Z,8.25
2019-03-21T22:12:45.921Z,10.75
2019-03-21T22:15:16.241Z,10.85
2019-03-21T22:17:45.147Z,11.12
2019-03-21T22:20:15.091Z,11.45
2019-03-21T22:22:43.773Z,12.45
2019-03-21T22:25:12.738Z,11.78
2019-03-21T22:27:41.281Z,11.83
2019-03-21T22:30:15.891Z,10.50
2019-03-21T22:32:44.457Z,9.93
2019-03-21T22:35:13.088Z,14.18
2019-03-21T22:37:41.540Z,11.80
2019-03-21T22:40:12.690Z,18.55
2019-03-21T22:42:41.228Z,12.78
2019-03-21T22:45:12.152Z,8.38
2019-03-21T22:47:41.216Z,7.85
2019-03-21T22:50:11.707Z,8.78
2019-03-21T22:52:40.187Z,11.30
2019-03-21T22:55:08.966Z,8.55
2019-03-21T22:57:37.462Z,8.10
2019-03-21T23:00:08.802Z,8.58
2019-03-21T23:02:37.235Z,9.18
2019-03-21T23:05:07.431Z,8.93
2019-03-21T23:07:36.279Z,7.47
2019-03-21T23:10:09.135Z,7.35
2019-03-21T23:12:37.547Z,8.43
2019-03-21T23:15:08.442Z,9.73
2019-03-21T23:17:38.509Z,5.62
2019-03-21T23:20:09.241Z,9.05
2019-03-21T23:22:37.651Z,6.95
2019-03-21T23:25:08.604Z,8.45
2019-03-21T23:27:37.045Z,8.83
2019-03-21T23:30:19.066Z,9.20
2019-03-21T23:32:47.631Z,9.05
2019-03-21T23:35:16.627Z,8.78
2019-03-21T23:37:45.175Z,8.35
2019-03-21T23:40:15.265Z,9.85
2019-03-21T23:42:43.861Z,11.70
2019-03-21T23:45:13.639Z,6.30
2019-03-21T23:47:42.194Z,10.55
2019-03-21T23:50:13.831Z,5.90
2019-03-21T23:52:42.352Z,8.75
2019-03-21T23:55:11.111Z,10.28
2019-03-21T23:57:39.556Z,6.65
